Overview Statistics Trail Chart Weather Telemetry Raw packets
 

This is the latest recevied weather packets stored in our database for station/object S56OA-13. If no packets are shown the sender has not sent any weather packets the latest 10 day(s).

<< 14 15 16 17 18 19 >>
Time Temp. Humidity Pressure Rain* Wind** Luminosity Snow
1787944115 21.11° C 42% 881.9 hPa - - - -
1787942268 21.67° C 42% 883.1 hPa - - - -
1787940438 21.67° C 43% 884.3 hPa - - - -
1787938637 22.22° C 43% 885.6 hPa - - - -
1787936836 23.33° C 43% 889.9 hPa - - - -
1787935034 26.11° C 43% 899 hPa - - - -
1787933233 30° C 42% 914 hPa - - - -
1787931431 33.89° C 39% 923.9 hPa - - - -
1787929630 36.11° C 38% 929.8 hPa - - - -
1787927829 36.67° C 38% 933.3 hPa - - - -
1787926027 36.67° C 38% 934.6 hPa - - - -
1787924259 37.78° C 38% 939.1 hPa - - - -
1787924226 37.78° C 38% 939.1 hPa - - - -
1787922424 37.22° C 39% 937.6 hPa - - - -
1787920624 37.22° C 39% 939 hPa - - - -
1787918822 34.44° C 42% 934.9 hPa - - - -
1787917021 34.44° C 42% 932.7 hPa - - - -
1787913418 33.89° C 40% 926.9 hPa - - - -
1787911616 33.33° C 40% 925.4 hPa - - - -
1787908014 31.67° C 40% 919.6 hPa - - - -
1787906213 30° C 41% 911.7 hPa - - - -
1787904411 28.33° C 41% 906.9 hPa - - - -
1787902609 27.22° C 41% 902.5 hPa - - - -
1787900808 26.67° C 40% 900.8 hPa - - - -
1787899007 25° C 40% 893.8 hPa - - - -

* Rain since midnight (hover to see other rain measurements)
** Current wind speed in m/s (hover to see current wind gust speed)